createdAt,value
2022-10-11T00:01:44.839Z,89.06
2022-10-11T00:03:58.282Z,89.48
2022-10-11T00:06:11.941Z,89.91
2022-10-11T00:08:25.543Z,90.37
2022-10-11T00:10:39.022Z,90.21
2022-10-11T00:12:53.487Z,90.44
2022-10-11T00:15:07.032Z,90.72
2022-10-11T00:17:20.347Z,91.27
2022-10-11T00:19:33.801Z,91.70
2022-10-11T00:21:47.233Z,91.91
2022-10-11T00:24:00.452Z,91.84
2022-10-11T00:26:15.350Z,91.89
2022-10-11T00:28:28.637Z,91.83
2022-10-11T00:30:45.402Z,91.79
2022-10-11T00:32:58.647Z,91.69
2022-10-11T00:35:13.970Z,92.00
2022-10-11T00:37:27.352Z,92.15
2022-10-11T00:39:40.728Z,91.93
2022-10-11T00:41:54.132Z,91.85
2022-10-11T00:44:23.680Z,92.05
2022-10-11T00:46:38.338Z,92.12
2022-10-11T00:48:54.489Z,92.04
2022-10-11T00:51:09.907Z,92.33
2022-10-11T00:53:24.075Z,92.37
2022-10-11T00:55:44.138Z,92.26
2022-10-11T00:57:59.529Z,92.05
2022-10-11T01:00:17.417Z,91.92
2022-10-11T01:02:31.658Z,91.92
2022-10-11T01:04:45.588Z,92.08
2022-10-11T01:07:01.328Z,92.07
2022-10-11T01:09:15.632Z,91.98
2022-10-11T01:11:33.000Z,92.12
2022-10-11T01:13:59.371Z,92.64
2022-10-11T01:16:22.105Z,93.03
2022-10-11T01:18:41.989Z,93.06
2022-10-11T01:21:04.550Z,93.29
2022-10-11T01:23:50.048Z,93.19
2022-10-11T01:26:25.014Z,93.20
2022-10-11T01:28:52.815Z,92.94
2022-10-11T01:31:13.766Z,92.79
2022-10-11T01:33:36.415Z,92.92
2022-10-11T01:35:57.428Z,93.25
2022-10-11T01:38:21.633Z,93.48
2022-10-11T01:40:40.904Z,93.59
2022-10-11T01:42:55.873Z,93.73
2022-10-11T01:45:11.318Z,93.70
2022-10-11T01:47:27.979Z,93.91
2022-10-11T01:49:41.489Z,94.10
2022-10-11T01:51:56.559Z,94.28
2022-10-11T01:54:27.709Z,94.51
2022-10-11T01:57:09.704Z,94.63
2022-10-11T01:59:32.601Z,94.66
2022-10-11T02:01:58.174Z,94.65
2022-10-11T02:04:20.611Z,94.56
2022-10-11T02:06:43.554Z,94.71
2022-10-11T02:09:08.233Z,94.84
2022-10-11T02:11:28.338Z,94.92
2022-10-11T02:13:46.917Z,94.95
2022-10-11T02:16:02.237Z,94.98
2022-10-11T02:18:19.391Z,94.91
2022-10-11T02:20:35.758Z,95.23
2022-10-11T02:22:53.052Z,95.25
2022-10-11T02:25:11.668Z,95.16
2022-10-11T02:27:29.331Z,94.98
2022-10-11T02:29:45.480Z,94.88
2022-10-11T02:32:00.803Z,95.12
2022-10-11T02:34:19.554Z,95.05
2022-10-11T02:36:39.993Z,95.05
2022-10-11T02:38:58.352Z,95.06
2022-10-11T02:41:16.259Z,94.64
2022-10-11T02:43:40.798Z,94.86
2022-10-11T02:45:58.013Z,94.84
2022-10-11T02:48:13.792Z,94.52
2022-10-11T02:50:28.039Z,94.22
2022-10-11T02:52:41.497Z,94.29
2022-10-11T02:54:54.603Z,94.57
2022-10-11T02:57:07.804Z,94.78
2022-10-11T02:59:21.259Z,95.13
2022-10-11T03:01:34.840Z,95.19
2022-10-11T03:03:48.574Z,95.37
2022-10-11T03:06:07.954Z,95.23
2022-10-11T03:08:22.224Z,94.98
2022-10-11T03:10:35.773Z,95.35
2022-10-11T03:12:49.103Z,95.42
2022-10-11T03:15:02.565Z,95.41
2022-10-11T03:17:35.191Z,95.50
2022-10-11T03:19:49.825Z,95.31
2022-10-11T03:22:03.313Z,94.87
2022-10-11T03:24:16.662Z,94.92
2022-10-11T03:26:29.894Z,95.14
2022-10-11T03:28:44.146Z,95.21
2022-10-11T03:30:57.910Z,95.31
2022-10-11T03:33:11.236Z,95.05
2022-10-11T03:35:24.690Z,94.94
2022-10-11T03:37:37.883Z,95.02
2022-10-11T03:39:51.821Z,95.04
2022-10-11T03:42:04.979Z,94.97
2022-10-11T03:44:18.310Z,95.22
2022-10-11T03:46:31.724Z,95.37
2022-10-11T03:48:45.460Z,95.48
2022-10-11T03:50:59.358Z,95.56
2022-10-11T03:53:12.737Z,95.85
2022-10-11T03:55:26.119Z,95.88
2022-10-11T03:57:39.231Z,95.92
2022-10-11T03:59:52.350Z,95.87
2022-10-11T04:02:05.826Z,95.93
2022-10-11T04:04:19.095Z,95.96
2022-10-11T04:06:32.330Z,95.92
2022-10-11T04:08:45.515Z,96.00
2022-10-11T04:10:58.807Z,95.88
2022-10-11T04:13:13.388Z,95.71
2022-10-11T04:15:26.687Z,95.86
2022-10-11T04:17:40.040Z,95.99
2022-10-11T04:19:53.293Z,95.91
2022-10-11T04:22:07.147Z,95.73
2022-10-11T04:24:20.454Z,95.91
2022-10-11T04:26:33.730Z,95.80
2022-10-11T04:28:47.064Z,95.97
2022-10-11T04:31:00.401Z,95.79
2022-10-11T04:33:14.243Z,95.80
2022-10-11T04:35:27.441Z,95.83
2022-10-11T04:37:40.852Z,95.73
2022-10-11T04:39:54.203Z,95.69
2022-10-11T04:42:07.501Z,95.55
2022-10-11T04:44:20.625Z,95.47
2022-10-11T04:46:34.053Z,95.47
2022-10-11T04:48:47.174Z,95.73
2022-10-11T04:51:00.366Z,95.37
2022-10-11T04:53:13.477Z,95.05
2022-10-11T04:55:26.600Z,94.56
2022-10-11T04:57:39.776Z,94.64
2022-10-11T04:59:53.086Z,94.52
2022-10-11T05:02:06.296Z,94.40
2022-10-11T05:04:19.657Z,94.57
2022-10-11T05:06:32.744Z,94.39
2022-10-11T05:08:45.869Z,93.86
2022-10-11T05:11:07.225Z,93.63
2022-10-11T05:13:20.500Z,93.56
2022-10-11T05:15:33.896Z,93.29
2022-10-11T05:17:47.002Z,93.27
2022-10-11T05:20:00.221Z,93.21
2022-10-11T05:22:13.334Z,93.16
2022-10-11T05:24:26.441Z,93.18
2022-10-11T05:26:39.615Z,93.13
2022-10-11T05:28:53.456Z,93.14
2022-10-11T05:31:06.824Z,93.22
2022-10-11T05:33:20.324Z,93.09
2022-10-11T05:35:33.391Z,92.92
2022-10-11T05:37:46.468Z,92.56
2022-10-11T05:39:59.628Z,92.58
2022-10-11T05:42:13.159Z,92.72
2022-10-11T05:44:26.699Z,92.81
2022-10-11T05:46:40.004Z,92.87
2022-10-11T05:48:53.081Z,92.74
2022-10-11T05:51:11.472Z,92.68
2022-10-11T05:53:24.707Z,92.65
2022-10-11T05:55:42.157Z,92.87
2022-10-11T05:57:59.284Z,92.71
2022-10-11T06:00:14.915Z,92.76
2022-10-11T06:02:28.191Z,93.05
2022-10-11T06:04:44.249Z,93.39
2022-10-11T06:06:57.608Z,93.56
2022-10-11T06:09:10.905Z,93.57
2022-10-11T06:11:26.659Z,93.36
2022-10-11T06:13:39.942Z,93.57
2022-10-11T06:15:53.313Z,93.53
2022-10-11T06:18:06.551Z,93.57
2022-10-11T06:20:19.862Z,93.71
2022-10-11T06:22:33.008Z,93.78
2022-10-11T06:24:46.065Z,93.79
2022-10-11T06:26:59.236Z,93.65
2022-10-11T06:29:12.776Z,93.51
2022-10-11T06:31:25.977Z,93.31
2022-10-11T06:33:39.578Z,93.47
2022-10-11T06:35:52.811Z,93.62
2022-10-11T06:38:06.375Z,93.71
2022-10-11T06:40:19.766Z,93.63
2022-10-11T06:42:32.948Z,93.76
2022-10-11T06:44:46.001Z,93.78
2022-10-11T06:46:59.039Z,93.57
2022-10-11T06:49:12.215Z,93.74
2022-10-11T06:51:27.101Z,93.87
2022-10-11T06:53:40.474Z,94.05
2022-10-11T06:55:53.654Z,93.97
2022-10-11T06:58:06.916Z,93.97
2022-10-11T07:00:22.575Z,94.01
2022-10-11T07:02:35.718Z,93.93
2022-10-11T07:04:48.858Z,94.03
2022-10-11T07:07:02.334Z,94.03
2022-10-11T07:09:15.759Z,94.02
2022-10-11T07:11:30.333Z,94.14
2022-10-11T07:13:43.999Z,94.09
2022-10-11T07:15:57.130Z,94.18
2022-10-11T07:18:10.503Z,94.06
2022-10-11T07:20:23.828Z,94.05
2022-10-11T07:22:36.861Z,94.16
2022-10-11T07:24:50.251Z,94.18
2022-10-11T07:27:04.429Z,94.23
2022-10-11T07:29:18.024Z,94.15
2022-10-11T07:31:31.691Z,94.13
2022-10-11T07:33:44.838Z,94.15
2022-10-11T07:36:00.721Z,94.30
2022-10-11T07:38:14.176Z,94.60
2022-10-11T07:40:27.276Z,94.61
2022-10-11T07:42:40.418Z,94.70
2022-10-11T07:44:53.457Z,94.50
2022-10-11T07:47:10.967Z,94.51
2022-10-11T07:49:24.548Z,94.40
2022-10-11T07:51:39.162Z,94.23
2022-10-11T07:53:53.338Z,94.06
2022-10-11T07:56:08.685Z,94.13
2022-10-11T07:58:22.215Z,94.27
2022-10-11T08:00:35.495Z,94.32
2022-10-11T08:02:48.826Z,94.47
2022-10-11T08:05:02.080Z,94.59
2022-10-11T08:07:15.365Z,94.33
2022-10-11T08:09:28.640Z,94.12
2022-10-11T08:11:42.822Z,94.19
2022-10-11T08:13:56.153Z,94.14
2022-10-11T08:16:16.464Z,93.97
2022-10-11T08:18:29.796Z,93.98
2022-10-11T08:20:44.638Z,94.13
2022-10-11T08:22:58.573Z,94.05
2022-10-11T08:25:12.636Z,93.66
2022-10-11T08:27:26.062Z,93.32
2022-10-11T08:29:39.409Z,93.26
2022-10-11T08:31:52.652Z,93.11
2022-10-11T08:34:06.051Z,93.30
2022-10-11T08:36:19.636Z,93.44
2022-10-11T08:38:32.931Z,93.38
2022-10-11T08:40:52.022Z,93.36
2022-10-11T08:43:09.678Z,93.58
2022-10-11T08:45:30.358Z,93.53
2022-10-11T08:47:47.976Z,93.55
2022-10-11T08:50:01.926Z,93.66
2022-10-11T08:52:26.961Z,93.57
2022-10-11T08:54:46.894Z,93.57
2022-10-11T08:57:00.105Z,93.53
2022-10-11T08:59:28.090Z,93.82
2022-10-11T09:01:44.291Z,93.87
2022-10-11T09:03:58.735Z,93.86
2022-10-11T09:06:21.879Z,93.93
2022-10-11T09:08:45.545Z,94.18
2022-10-11T09:11:09.880Z,94.17
2022-10-11T09:13:42.865Z,94.15
2022-10-11T09:15:59.396Z,94.29
2022-10-11T09:18:38.408Z,94.39
2022-10-11T09:21:00.705Z,94.49
2022-10-11T09:23:23.269Z,94.60
2022-10-11T09:25:41.202Z,94.77
2022-10-11T09:28:08.862Z,94.91
2022-10-11T09:30:23.634Z,95.04
2022-10-11T09:32:40.265Z,95.15
2022-10-11T09:34:57.032Z,95.10
2022-10-11T09:37:19.862Z,94.88
2022-10-11T09:39:36.077Z,94.95
2022-10-11T09:41:57.193Z,95.04
2022-10-11T09:44:17.181Z,94.80
2022-10-11T09:46:39.103Z,94.71
2022-10-11T09:48:55.638Z,94.71
2022-10-11T09:51:18.282Z,94.67
2022-10-11T09:53:55.577Z,94.74
2022-10-11T09:56:10.635Z,94.58
2022-10-11T09:58:39.888Z,94.53
2022-10-11T10:01:07.861Z,94.34
2022-10-11T10:03:35.435Z,94.31
2022-10-11T10:05:48.711Z,94.11
2022-10-11T10:08:25.580Z,94.08
2022-10-11T10:10:44.689Z,93.94
2022-10-11T10:13:03.509Z,93.92
2022-10-11T10:15:24.215Z,93.80
2022-10-11T10:17:39.177Z,93.96
2022-10-11T10:19:57.775Z,93.90
2022-10-11T10:22:19.021Z,93.92
2022-10-11T10:24:41.372Z,93.78
2022-10-11T10:27:19.533Z,94.02
2022-10-11T10:29:32.692Z,93.95
2022-10-11T10:32:14.219Z,94.13
2022-10-11T10:34:32.007Z,94.09
2022-10-11T10:36:48.594Z,94.20
2022-10-11T10:39:08.607Z,94.11
2022-10-11T10:41:23.479Z,93.77
2022-10-11T10:43:40.263Z,93.59
2022-10-11T10:46:19.700Z,93.65
2022-10-11T10:49:23.236Z,93.56
2022-10-11T10:51:28.024Z,93.87
2022-10-11T10:53:48.003Z,93.91
2022-10-11T10:56:09.673Z,94.09
2022-10-11T10:58:41.183Z,93.97
2022-10-11T11:00:57.157Z,93.84
2022-10-11T11:03:16.810Z,93.86
2022-10-11T11:05:41.490Z,94.04
2022-10-11T11:07:59.414Z,94.32
2022-10-11T11:10:16.677Z,94.39
2022-10-11T11:12:49.285Z,94.26
2022-10-11T11:15:13.664Z,94.04
2022-10-11T11:17:36.125Z,93.96
2022-10-11T11:20:04.643Z,93.91
2022-10-11T11:22:32.603Z,94.01
2022-10-11T11:24:56.869Z,93.97
2022-10-11T11:27:19.074Z,93.95
2022-10-11T11:29:54.502Z,94.02
2022-10-11T11:32:23.766Z,93.97
2022-10-11T11:34:41.866Z,93.92
2022-10-11T11:36:58.828Z,94.05
2022-10-11T11:39:16.393Z,94.37
2022-10-11T11:41:32.135Z,94.15
2022-10-11T11:43:52.775Z,94.32
2022-10-11T11:46:12.591Z,94.46
2022-10-11T11:48:28.310Z,94.51
2022-10-11T11:50:46.630Z,94.59
2022-10-11T11:53:03.333Z,94.45
2022-10-11T11:55:22.057Z,94.26
2022-10-11T11:57:45.349Z,94.17
2022-10-11T12:00:03.997Z,94.24
2022-10-11T12:02:48.608Z,94.36
2022-10-11T12:05:01.983Z,94.23
2022-10-11T12:07:17.803Z,94.34
2022-10-11T12:09:31.497Z,94.49
2022-10-11T12:11:54.712Z,94.57
2022-10-11T12:14:18.162Z,94.16
2022-10-11T12:16:31.455Z,93.77
2022-10-11T12:18:55.190Z,93.89
2022-10-11T12:21:22.582Z,94.20
2022-10-11T12:23:50.729Z,94.29
2022-10-11T12:26:44.864Z,94.20
2022-10-11T12:29:30.127Z,94.17
2022-10-11T12:31:46.131Z,94.21
2022-10-11T12:34:36.493Z,94.22
2022-10-11T12:36:51.225Z,94.60
2022-10-11T12:39:33.300Z,94.62
2022-10-11T12:41:56.675Z,94.81
2022-10-11T12:44:27.487Z,94.87
2022-10-11T12:47:19.733Z,94.97
2022-10-11T12:49:51.460Z,95.08
2022-10-11T12:52:08.094Z,95.13
2022-10-11T12:54:55.631Z,95.29
2022-10-11T12:57:33.445Z,95.75
2022-10-11T12:59:48.907Z,96.02
2022-10-11T13:02:04.593Z,96.12
2022-10-11T13:04:20.250Z,96.24
2022-10-11T13:06:35.943Z,96.11
2022-10-11T13:08:53.779Z,96.03
2022-10-11T13:11:09.466Z,96.17
2022-10-11T13:13:30.474Z,96.25
2022-10-11T13:15:45.838Z,96.21
2022-10-11T13:18:04.589Z,96.33
2022-10-11T13:20:23.730Z,96.22
2022-10-11T13:22:42.489Z,96.25
2022-10-11T13:24:58.837Z,96.41
2022-10-11T13:27:19.704Z,96.54
2022-10-11T13:29:38.113Z,96.39
2022-10-11T13:31:52.571Z,96.26
2022-10-11T13:34:05.943Z,96.21
2022-10-11T13:36:20.852Z,96.36
2022-10-11T13:38:36.072Z,96.33
2022-10-11T13:40:51.145Z,96.25
2022-10-11T13:43:04.942Z,96.11
2022-10-11T13:45:20.303Z,96.14
2022-10-11T13:47:35.232Z,96.03
2022-10-11T13:49:54.670Z,95.81
2022-10-11T13:52:10.333Z,95.66
2022-10-11T13:54:23.407Z,95.54
2022-10-11T13:56:40.146Z,95.77
2022-10-11T13:58:55.861Z,95.64
2022-10-11T14:01:10.919Z,95.32
2022-10-11T14:03:27.697Z,95.10
2022-10-11T14:05:44.304Z,95.26
2022-10-11T14:07:57.735Z,95.37
2022-10-11T14:10:22.487Z,95.33
2022-10-11T14:12:40.983Z,95.59
2022-10-11T14:14:54.311Z,95.38
2022-10-11T14:17:15.726Z,95.46
2022-10-11T14:19:28.922Z,95.53
2022-10-11T14:21:55.385Z,95.38
2022-10-11T14:24:11.646Z,95.36
2022-10-11T14:26:26.193Z,95.20
2022-10-11T14:28:39.392Z,95.24
2022-10-11T14:30:52.617Z,95.44
2022-10-11T14:33:06.929Z,95.39
2022-10-11T14:35:25.301Z,95.35
2022-10-11T14:37:38.609Z,95.46
2022-10-11T14:39:52.265Z,95.53
2022-10-11T14:42:05.908Z,95.57
2022-10-11T14:44:19.809Z,95.46
2022-10-11T14:46:33.165Z,95.26
2022-10-11T14:49:01.201Z,95.50
2022-10-11T14:51:21.345Z,95.94
2022-10-11T14:53:38.642Z,96.18
2022-10-11T14:55:54.349Z,96.23
2022-10-11T14:58:07.789Z,96.13
2022-10-11T15:00:25.928Z,96.22
2022-10-11T15:02:39.082Z,96.27
2022-10-11T15:04:53.059Z,96.44
2022-10-11T15:07:07.187Z,96.33
2022-10-11T15:09:22.080Z,96.25
2022-10-11T15:11:35.290Z,96.12
2022-10-11T15:13:48.926Z,96.21
2022-10-11T15:16:02.298Z,96.53
2022-10-11T15:18:18.752Z,96.91
2022-10-11T15:20:34.369Z,97.17
2022-10-11T15:22:47.738Z,97.32
2022-10-11T15:25:01.453Z,97.38
2022-10-11T15:27:18.262Z,97.37
2022-10-11T15:29:31.583Z,97.32
2022-10-11T15:31:45.494Z,97.38
2022-10-11T15:34:00.629Z,97.44
2022-10-11T15:36:17.535Z,97.53
2022-10-11T15:38:31.413Z,97.63
2022-10-11T15:40:44.634Z,97.76
2022-10-11T15:42:58.343Z,98.02
2022-10-11T15:45:12.630Z,98.31
2022-10-11T15:47:25.787Z,98.28
2022-10-11T15:49:38.973Z,98.49
2022-10-11T15:51:52.376Z,98.78
2022-10-11T15:54:05.602Z,99.13
2022-10-11T15:56:21.202Z,99.18
2022-10-11T15:58:36.611Z,99.41
2022-10-11T16:00:51.387Z,99.54
2022-10-11T16:03:04.889Z,99.61
2022-10-11T16:05:18.172Z,99.80
2022-10-11T16:07:31.508Z,99.79
2022-10-11T16:09:44.735Z,99.85
2022-10-11T16:11:58.026Z,99.86
2022-10-11T16:14:11.581Z,99.98
2022-10-11T16:16:24.718Z,100.00
2022-10-11T16:18:38.112Z,100.00
2022-10-11T16:20:53.096Z,100.00
2022-10-11T16:23:06.314Z,100.00
2022-10-11T16:25:20.052Z,100.00
2022-10-11T16:27:33.680Z,100.00
2022-10-11T16:29:46.717Z,100.00
2022-10-11T16:31:59.871Z,100.00
2022-10-11T16:34:12.940Z,100.00
2022-10-11T16:36:37.387Z,100.00
2022-10-11T16:38:50.558Z,100.00
2022-10-11T16:41:03.663Z,100.00
2022-10-11T16:43:17.015Z,100.00
2022-10-11T16:45:30.557Z,100.00
2022-10-11T16:47:43.755Z,100.00
2022-10-11T16:49:57.004Z,100.00
2022-10-11T16:52:12.079Z,100.00
2022-10-11T16:54:26.152Z,100.00
2022-10-11T16:56:40.210Z,100.00
2022-10-11T16:58:54.524Z,100.00
2022-10-11T17:01:10.544Z,100.00
2022-10-11T17:03:23.726Z,100.00
2022-10-11T17:05:39.901Z,100.00
2022-10-11T17:07:53.189Z,100.00
2022-10-11T17:10:06.641Z,100.00
2022-10-11T17:12:21.005Z,99.98
2022-10-11T17:14:34.187Z,99.71
2022-10-11T17:16:47.887Z,99.43
2022-10-11T17:19:01.070Z,99.02
2022-10-11T17:21:16.149Z,99.35
2022-10-11T17:23:29.362Z,99.48
2022-10-11T17:25:47.400Z,99.27
2022-10-11T17:28:01.079Z,99.43
2022-10-11T17:30:16.374Z,99.73
2022-10-11T17:32:29.760Z,99.63
2022-10-11T17:34:43.062Z,99.45
2022-10-11T17:36:56.388Z,99.41
2022-10-11T17:39:14.103Z,99.49
2022-10-11T17:41:31.776Z,99.28
2022-10-11T17:43:45.685Z,98.43
2022-10-11T17:46:04.019Z,97.96
2022-10-11T17:48:17.464Z,98.39
2022-10-11T17:50:30.536Z,97.70
2022-10-11T17:52:43.662Z,97.09
2022-10-11T17:54:56.850Z,96.85
2022-10-11T17:57:10.101Z,97.04
2022-10-11T17:59:28.761Z,97.59
2022-10-11T18:01:42.057Z,98.16
2022-10-11T18:04:00.024Z,97.72
2022-10-11T18:06:15.096Z,96.61
2022-10-11T18:08:28.515Z,97.00
2022-10-11T18:10:47.352Z,97.24
2022-10-11T18:13:05.768Z,97.24
2022-10-11T18:15:19.863Z,97.03
2022-10-11T18:17:33.023Z,96.60
2022-10-11T18:19:46.266Z,96.33
2022-10-11T18:22:02.047Z,96.07
2022-10-11T18:24:20.425Z,95.96
2022-10-11T18:26:33.807Z,95.66
2022-10-11T18:28:47.910Z,95.32
2022-10-11T18:31:01.687Z,95.47
2022-10-11T18:33:15.337Z,95.88
2022-10-11T18:35:28.576Z,95.87
2022-10-11T18:37:41.834Z,95.68
2022-10-11T18:39:55.276Z,95.26
2022-10-11T18:42:08.414Z,94.50
2022-10-11T18:44:22.182Z,94.68
2022-10-11T18:46:36.073Z,95.30
2022-10-11T18:48:50.922Z,95.67
2022-10-11T18:51:11.395Z,94.45
2022-10-11T18:53:25.270Z,94.14
2022-10-11T18:55:38.535Z,93.88
2022-10-11T18:57:51.796Z,94.06
2022-10-11T19:00:22.710Z,92.86
2022-10-11T19:02:38.288Z,91.54
2022-10-11T19:04:53.956Z,91.18
2022-10-11T19:07:07.045Z,91.54
2022-10-11T19:09:23.104Z,92.16
2022-10-11T19:11:37.300Z,93.44
2022-10-11T19:13:50.509Z,92.56
2022-10-11T19:16:10.167Z,92.43
2022-10-11T19:18:23.526Z,92.64
2022-10-11T19:20:37.803Z,90.57
2022-10-11T19:22:51.250Z,89.76
2022-10-11T19:25:04.557Z,89.85
2022-10-11T19:27:17.984Z,89.27
2022-10-11T19:29:32.233Z,89.50
2022-10-11T19:31:47.680Z,89.58
2022-10-11T19:34:02.775Z,89.54
2022-10-11T19:36:17.355Z,88.86
2022-10-11T19:38:30.659Z,88.63
2022-10-11T19:40:45.043Z,88.17
2022-10-11T19:42:58.266Z,87.61
2022-10-11T19:45:12.976Z,87.84
2022-10-11T19:47:26.453Z,86.58
2022-10-11T19:49:39.728Z,84.61
2022-10-11T19:51:52.967Z,85.15
2022-10-11T19:54:08.275Z,84.60
2022-10-11T19:56:22.312Z,84.91
2022-10-11T19:58:35.779Z,85.15
2022-10-11T20:00:49.631Z,84.41
2022-10-11T20:03:03.516Z,82.76
2022-10-11T20:05:17.005Z,82.82
2022-10-11T20:07:30.671Z,83.02
2022-10-11T20:09:44.333Z,82.30
2022-10-11T20:11:57.692Z,82.48
2022-10-11T20:14:11.090Z,83.22
2022-10-11T20:16:27.202Z,83.29
2022-10-11T20:18:41.138Z,81.60
2022-10-11T20:21:02.319Z,81.76
2022-10-11T20:23:18.129Z,81.99
2022-10-11T20:25:31.423Z,82.25
2022-10-11T20:27:45.562Z,82.19
2022-10-11T20:29:58.816Z,81.72
2022-10-11T20:32:12.011Z,82.64
2022-10-11T20:34:25.153Z,82.30
2022-10-11T20:36:39.048Z,82.74
2022-10-11T20:38:53.374Z,82.80
2022-10-11T20:41:10.614Z,83.60
2022-10-11T20:43:24.145Z,83.77
2022-10-11T20:45:37.310Z,84.18
2022-10-11T20:47:50.392Z,83.93
2022-10-11T20:50:03.590Z,84.00
2022-10-11T20:52:16.775Z,84.01
2022-10-11T20:54:30.303Z,83.78
2022-10-11T20:56:44.392Z,83.78
2022-10-11T20:58:59.313Z,83.08
2022-10-11T21:01:17.531Z,82.92
2022-10-11T21:03:30.960Z,83.63
2022-10-11T21:05:44.613Z,83.07
2022-10-11T21:07:57.894Z,82.07
2022-10-11T21:10:11.827Z,82.86
2022-10-11T21:12:25.797Z,83.70
2022-10-11T21:14:39.467Z,84.62
2022-10-11T21:16:52.872Z,85.37
2022-10-11T21:19:07.439Z,85.51
2022-10-11T21:21:21.067Z,86.15
2022-10-11T21:23:34.638Z,85.03
2022-10-11T21:25:47.970Z,84.41
2022-10-11T21:28:01.260Z,81.29
2022-10-11T21:30:15.764Z,79.46
2022-10-11T21:32:29.185Z,77.44
2022-10-11T21:34:42.573Z,76.54
2022-10-11T21:36:55.975Z,74.70
2022-10-11T21:39:09.709Z,73.64
2022-10-11T21:41:24.284Z,74.37
2022-10-11T21:43:39.183Z,74.27
2022-10-11T21:45:52.609Z,75.81
2022-10-11T21:48:05.978Z,76.29
2022-10-11T21:50:19.358Z,76.52
2022-10-11T21:52:33.123Z,76.75
2022-10-11T21:54:46.628Z,76.82
2022-10-11T21:57:00.000Z,77.52
2022-10-11T21:59:13.416Z,78.08
2022-10-11T22:01:26.923Z,77.36
2022-10-11T22:03:40.236Z,77.71
2022-10-11T22:05:53.643Z,77.83
2022-10-11T22:08:06.836Z,77.85
2022-10-11T22:10:20.059Z,78.45
2022-10-11T22:12:33.450Z,78.71
2022-10-11T22:14:46.891Z,78.95
2022-10-11T22:17:00.335Z,78.72
2022-10-11T22:19:13.450Z,79.50
2022-10-11T22:21:27.272Z,79.32
2022-10-11T22:23:40.842Z,78.90
2022-10-11T22:25:53.949Z,78.68
2022-10-11T22:28:07.350Z,77.78
2022-10-11T22:30:20.665Z,77.94
2022-10-11T22:32:34.021Z,78.41
2022-10-11T22:34:47.797Z,79.43
2022-10-11T22:37:00.834Z,78.69
2022-10-11T22:39:13.892Z,78.73
2022-10-11T22:41:27.305Z,79.10
2022-10-11T22:43:40.665Z,78.99
2022-10-11T22:45:53.841Z,77.14
2022-10-11T22:48:06.971Z,76.97
2022-10-11T22:50:20.088Z,75.16
2022-10-11T22:52:33.334Z,74.50
2022-10-11T22:54:46.438Z,75.25
2022-10-11T22:56:59.573Z,74.93
2022-10-11T22:59:12.875Z,75.02
2022-10-11T23:01:26.017Z,75.48
2022-10-11T23:03:39.632Z,74.13
2022-10-11T23:06:00.290Z,74.29
2022-10-11T23:08:14.114Z,74.17
2022-10-11T23:10:27.364Z,73.84
2022-10-11T23:12:40.511Z,73.61
2022-10-11T23:14:53.648Z,73.15
2022-10-11T23:17:07.103Z,73.39
2022-10-11T23:19:20.271Z,73.69
2022-10-11T23:21:33.398Z,74.24
2022-10-11T23:23:46.462Z,74.19
2022-10-11T23:26:10.050Z,74.52
2022-10-11T23:28:23.628Z,74.81
2022-10-11T23:30:37.193Z,73.79
2022-10-11T23:32:50.586Z,73.66
2022-10-11T23:35:03.955Z,72.99
2022-10-11T23:37:17.319Z,73.23
2022-10-11T23:39:30.707Z,73.27
2022-10-11T23:41:44.046Z,73.61
2022-10-11T23:43:57.389Z,73.89
2022-10-11T23:46:10.680Z,74.06
2022-10-11T23:48:23.793Z,73.83
2022-10-11T23:50:36.096Z,73.67
2022-10-11T23:52:49.252Z,74.13
2022-10-11T23:55:02.468Z,74.02
2022-10-11T23:57:15.760Z,74.23
2022-10-11T23:59:29.354Z,73.74
